Time;durP1;ratioP1;P1;durP2;ratioP2;P2;SDS_P1;SDS_P2;PMS_P1;PMS_P2;Temp;Humidity;BMP_temperature;BMP_pressure;BME280_temperature;BME280_humidity;BME280_pressure;Samples;Min_cycle;Max_cycle;Signal;HPM_P1;HPM_P2
2022/03/28 00:00:07;;;;;;;32.08;11.77;;;;;;;5.80;81.58;102654.25;5022440;28;20444;-74
2022/03/28 00:02:33;;;;;;;28.98;12.05;;;;;;;5.77;82.12;102650.97;5022352;28;20132;-74
2022/03/28 00:04:58;;;;;;;33.83;12.95;;;;;;;5.75;81.84;102656.59;5023530;28;20112;-74
2022/03/28 00:07:23;;;;;;;30.48;14.13;;;;;;;5.77;81.97;102648.25;5020056;28;20032;-74
2022/03/28 00:09:48;;;;;;;33.55;13.15;;;;;;;5.76;81.79;102646.53;5023765;28;20522;-74
2022/03/28 00:12:14;;;;;;;36.83;14.00;;;;;;;5.75;81.77;102648.41;5023095;28;20060;-74
2022/03/28 00:14:39;;;;;;;37.28;15.95;;;;;;;5.75;81.69;102644.84;5022633;28;20025;-74
2022/03/28 00:17:05;;;;;;;37.97;14.60;;;;;;;5.71;81.74;102645.13;5023967;28;20041;-74
2022/03/28 00:19:30;;;;;;;33.70;15.00;;;;;;;5.72;81.72;102632.34;5020271;28;20067;-74
2022/03/28 00:21:56;;;;;;;39.80;15.07;;;;;;;5.71;82.14;102625.19;5023673;28;20033;-73
2022/03/28 00:24:22;;;;;;;40.28;14.63;;;;;;;5.75;82.28;102633.94;5021670;28;20512;-74
2022/03/28 00:26:47;;;;;;;37.38;14.70;;;;;;;5.70;82.43;102621.63;5023076;28;20079;-75
2022/03/28 00:29:12;;;;;;;37.30;15.07;;;;;;;5.69;82.38;102617.19;5022000;28;20040;-74
2022/03/28 00:31:37;;;;;;;37.97;14.23;;;;;;;5.72;82.42;102614.13;5023974;28;20029;-74
2022/03/28 00:34:03;;;;;;;31.70;13.50;;;;;;;5.68;82.60;102604.56;5023427;28;20034;-72
2022/03/28 00:36:28;;;;;;;34.03;13.18;;;;;;;5.61;82.66;102602.59;5017464;28;20025;-74
2022/03/28 00:38:53;;;;;;;30.30;13.00;;;;;;;5.54;82.89;102599.66;5023876;28;20045;-73
2022/03/28 00:41:19;;;;;;;36.97;13.25;;;;;;;5.52;82.84;102595.34;5022090;28;20025;-74
2022/03/28 00:43:53;;;;;;;33.92;13.57;;;;;;;5.49;83.45;102593.81;5023090;28;20025;-74
2022/03/28 00:46:18;;;;;;;34.92;14.45;;;;;;;5.49;82.75;102601.13;5022741;28;20877;-73
2022/03/28 00:48:43;;;;;;;35.65;14.00;;;;;;;5.53;83.14;102595.22;5023575;28;20362;-74
2022/03/28 00:51:09;;;;;;;35.10;15.23;;;;;;;5.58;83.13;102589.31;5021487;28;20036;-74
2022/03/28 00:53:34;;;;;;;38.97;15.95;;;;;;;5.59;83.05;102591.00;5023380;28;20048;-74
2022/03/28 00:56:00;;;;;;;39.15;16.20;;;;;;;5.65;83.36;102585.78;5023153;28;20076;-74
2022/03/28 00:58:25;;;;;;;39.45;16.00;;;;;;;5.68;83.16;102590.94;5022843;28;20074;-74
2022/03/28 01:00:50;;;;;;;39.88;15.65;;;;;;;5.69;83.06;102579.03;5020130;28;20449;-74
2022/03/28 01:03:16;;;;;;;43.83;15.98;;;;;;;5.69;83.32;102580.91;5022256;28;20069;-74
2022/03/28 01:05:42;;;;;;;42.22;16.77;;;;;;;5.67;83.15;102575.56;5022521;28;20021;-74
2022/03/28 01:08:08;;;;;;;50.38;18.30;;;;;;;5.77;83.65;102578.22;5020808;28;20528;-71
2022/03/28 01:10:34;;;;;;;44.10;17.02;;;;;;;5.79;83.89;102575.34;5021768;28;20060;-74
2022/03/28 01:13:00;;;;;;;46.55;18.08;;;;;;;5.77;84.11;102572.75;5022790;28;20030;-74
2022/03/28 01:15:26;;;;;;;42.22;18.20;;;;;;;5.74;84.33;102567.66;5022249;28;20056;-74
2022/03/28 01:18:08;;;;;;;44.30;15.82;;;;;;;5.71;84.07;102567.94;5021676;28;20037;-74
2022/03/28 01:20:36;;;;;;;46.70;16.77;;;;;;;5.69;84.42;102567.25;5022422;28;20025;-74
2022/03/28 01:23:02;;;;;;;49.60;17.38;;;;;;;5.67;84.13;102567.41;5021983;28;20521;-75
2022/03/28 01:25:30;;;;;;;40.35;16.67;;;;;;;5.68;83.68;102557.38;5020660;28;20593;-74
2022/03/28 01:27:58;;;;;;;48.22;18.55;;;;;;;5.66;83.96;102554.78;5019807;28;20029;-74
2022/03/28 01:30:24;;;;;;;42.47;16.83;;;;;;;5.65;84.28;102557.69;5022193;28;20587;-74
2022/03/28 01:32:51;;;;;;;41.97;18.35;;;;;;;5.59;84.39;102548.25;5022420;28;20029;-74
2022/03/28 01:35:40;;;;;;;44.47;17.08;;;;;;;5.60;84.32;102547.25;5021710;28;20392;-74
2022/03/28 01:38:09;;;;;;;44.88;16.65;;;;;;;5.48;84.41;102548.50;5022094;28;20044;-74
2022/03/28 01:40:38;;;;;;;37.53;16.33;;;;;;;5.43;84.45;102542.66;5023326;28;20022;-74
2022/03/28 01:43:03;;;;;;;44.17;16.98;;;;;;;5.40;84.52;102538.34;5021209;28;20148;-74
2022/03/28 01:45:29;;;;;;;44.55;19.10;;;;;;;5.37;84.74;102537.81;5022379;28;20164;-74
2022/03/28 01:47:54;;;;;;;44.75;17.38;;;;;;;5.35;84.84;102528.94;5026241;28;20021;-74
2022/03/28 01:50:20;;;;;;;44.15;18.27;;;;;;;5.35;85.19;102534.41;5025170;28;20033;-74
2022/03/28 01:52:46;;;;;;;42.20;16.75;;;;;;;5.27;85.15;102531.56;5024587;28;20029;-74
2022/03/28 01:55:12;;;;;;;43.25;17.75;;;;;;;5.27;85.57;102539.75;5025461;28;20704;-74
2022/03/28 01:57:39;;;;;;;44.60;18.38;;;;;;;5.32;85.92;102538.31;5026648;28;20036;-73
2022/03/28 02:00:10;;;;;;;40.85;17.30;;;;;;;5.27;85.97;102542.47;5026152;28;20457;-74
2022/03/28 02:02:36;;;;;;;45.75;17.45;;;;;;;5.29;85.65;102530.41;5023534;28;20053;-74
2022/03/28 02:05:02;;;;;;;47.63;18.30;;;;;;;5.27;85.78;102526.13;5025576;28;20108;-73
2022/03/28 02:07:27;;;;;;;44.08;17.58;;;;;;;5.26;85.54;102527.13;5025119;28;20029;-72
2022/03/28 02:09:52;;;;;;;42.08;17.48;;;;;;;5.26;85.67;102521.69;5025055;28;20118;-74
2022/03/28 02:12:18;;;;;;;46.15;19.63;;;;;;;5.28;85.52;102527.88;5026090;28;20034;-74
2022/03/28 02:14:43;;;;;;;47.65;17.98;;;;;;;5.29;85.65;102518.69;5026245;28;20091;-74
2022/03/28 02:17:09;;;;;;;49.88;17.40;;;;;;;5.30;85.67;102520.38;5025727;28;20041;-73
2022/03/28 02:19:35;;;;;;;45.75;18.30;;;;;;;5.31;85.81;102527.53;5023449;28;20035;-74
2022/03/28 02:22:00;;;;;;;41.40;17.67;;;;;;;5.30;85.95;102525.81;5034682;28;20172;-74
2022/03/28 02:24:26;;;;;;;43.88;16.83;;;;;;;5.30;86.15;102514.94;5030141;28;20365;-74
2022/03/28 02:26:51;;;;;;;39.08;18.10;;;;;;;5.27;85.99;102512.50;5025710;28;20072;-74
2022/03/28 02:29:17;;;;;;;39.20;17.52;;;;;;;5.19;86.07;102514.16;5025687;28;20021;-74
2022/03/28 02:31:42;;;;;;;39.53;17.83;;;;;;;5.16;86.13;102530.78;5025633;28;20029;-74
2022/03/28 02:34:08;;;;;;;41.67;16.42;;;;;;;5.15;85.88;102517.34;5025522;28;20527;-74
2022/03/28 02:36:33;;;;;;;45.00;17.35;;;;;;;5.10;85.70;102511.50;5025341;28;20431;-75
2022/03/28 02:38:58;;;;;;;47.20;17.15;;;;;;;5.07;86.14;102509.94;5022567;28;20117;-74
2022/03/28 02:41:24;;;;;;;42.03;17.42;;;;;;;5.07;86.63;102514.50;5024966;28;20029;-74
2022/03/28 02:43:49;;;;;;;43.67;17.08;;;;;;;5.07;86.29;102503.63;5024328;28;20148;-74
2022/03/28 02:46:15;;;;;;;46.67;17.33;;;;;;;5.03;85.98;102492.19;5025423;28;20813;-74
2022/03/28 02:48:40;;;;;;;46.70;17.70;;;;;;;5.05;86.15;102495.59;5025905;28;20108;-74
2022/03/28 02:51:05;;;;;;;40.70;16.75;;;;;;;5.05;86.30;102490.16;5024475;28;20029;-74
2022/03/28 02:53:31;;;;;;;37.20;16.55;;;;;;;5.02;86.10;102490.50;5032063;23;20045;-73
2022/03/28 02:55:58;;;;;;;44.25;16.45;;;;;;;4.99;86.36;102479.91;5028747;28;20602;-74
2022/03/28 02:58:23;;;;;;;39.65;15.77;;;;;;;4.93;85.91;102483.25;5035977;28;20086;-75
2022/03/28 03:00:48;;;;;;;49.53;16.70;;;;;;;4.87;86.19;102475.69;5045693;28;20028;-75
2022/03/28 03:03:13;;;;;;;43.40;17.25;;;;;;;4.77;86.48;102478.47;5043830;28;20060;-74
2022/03/28 03:05:39;;;;;;;43.03;16.90;;;;;;;4.66;86.71;102471.38;5042675;28;20471;-74
2022/03/28 03:08:04;;;;;;;42.15;16.52;;;;;;;4.58;86.91;102465.81;5045105;28;20033;-73
2022/03/28 03:10:29;;;;;;;39.72;16.92;;;;;;;4.52;87.52;102466.44;5042445;28;20434;-73
2022/03/28 03:12:54;;;;;;;41.03;16.85;;;;;;;4.45;87.75;102462.59;5045350;28;20029;-74
2022/03/28 03:15:20;;;;;;;39.88;16.80;;;;;;;4.39;87.52;102471.34;5042369;28;20156;-73
2022/03/28 03:17:45;;;;;;;42.60;17.45;;;;;;;4.40;87.98;102465.75;5045392;28;20033;-74
2022/03/28 03:20:11;;;;;;;41.30;16.75;;;;;;;4.38;88.46;102459.63;5043339;28;20033;-73
2022/03/28 03:22:36;;;;;;;42.63;16.55;;;;;;;4.33;88.11;102459.22;5045299;28;20029;-74
2022/03/28 03:25:02;;;;;;;38.67;17.05;;;;;;;4.36;88.34;102458.06;5043625;28;20021;-73
2022/03/28 03:27:27;;;;;;;36.85;17.10;;;;;;;4.35;88.64;102461.78;5042438;28;20394;-73
2022/03/28 03:29:52;;;;;;;43.40;18.48;;;;;;;4.35;88.56;102465.34;5045052;28;20036;-73
2022/03/28 03:32:18;;;;;;;47.15;16.15;;;;;;;4.38;88.61;102465.06;5044678;28;20025;-74
2022/03/28 03:34:43;;;;;;;48.03;16.52;;;;;;;4.37;88.74;102455.19;5043849;28;20471;-74
2022/03/28 03:37:08;;;;;;;47.00;16.52;;;;;;;4.34;88.50;102460.06;5042601;28;20041;-74
2022/03/28 03:39:35;;;;;;;45.67;17.17;;;;;;;4.34;89.19;102444.59;5045674;28;20032;-74
2022/03/28 03:42:01;;;;;;;46.20;17.52;;;;;;;4.35;89.34;102456.34;5044709;28;20029;-74
2022/03/28 03:44:26;;;;;;;46.67;17.15;;;;;;;4.34;89.69;102455.47;5044198;28;20032;-74
2022/03/28 03:46:51;;;;;;;51.20;17.27;;;;;;;4.38;89.48;102453.34;5042958;28;20025;-74
2022/03/28 03:49:17;;;;;;;43.58;15.75;;;;;;;4.37;89.12;102449.75;5043681;28;20036;-74
2022/03/28 03:51:42;;;;;;;46.97;16.00;;;;;;;4.36;89.00;102445.34;5043901;28;20475;-74
2022/03/28 03:54:07;;;;;;;47.60;16.25;;;;;;;4.32;89.02;102441.19;5043696;28;20045;-74
2022/03/28 03:56:33;;;;;;;39.95;15.45;;;;;;;4.28;89.01;102436.19;5043730;28;20487;-74
2022/03/28 03:58:58;;;;;;;44.92;16.10;;;;;;;4.25;89.40;102436.50;5044149;28;20735;-74
2022/03/28 04:01:26;;;;;;;51.33;16.73;;;;;;;4.26;89.84;102433.66;5044047;28;20112;-74
2022/03/28 04:03:51;;;;;;;47.83;16.92;;;;;;;4.29;89.70;102421.59;5043474;28;20032;-74
2022/03/28 04:06:17;;;;;;;44.67;16.88;;;;;;;4.26;90.14;102427.31;5042937;28;20438;-74
2022/03/28 04:08:42;;;;;;;47.75;16.25;;;;;;;4.22;89.75;102425.94;5041713;28;20391;-74
2022/03/28 04:11:08;;;;;;;46.17;16.85;;;;;;;4.22;90.15;102423.22;5041032;28;20056;-74
2022/03/28 04:13:34;;;;;;;50.05;17.95;;;;;;;4.18;90.22;102424.50;5044596;28;20154;-73
2022/03/28 04:16:00;;;;;;;47.42;16.33;;;;;;;4.08;89.79;102417.25;5042434;28;20032;-73
2022/03/28 04:18:27;;;;;;;42.88;14.98;;;;;;;3.99;89.33;102422.72;5043308;28;20040;-73
2022/03/28 04:20:53;;;;;;;38.47;16.15;;;;;;;3.96;90.13;102414.88;5042403;28;20459;-73
2022/03/28 04:23:19;;;;;;;43.20;16.75;;;;;;;3.97;90.04;102405.72;5042885;28;20028;-74
2022/03/28 04:25:44;;;;;;;39.88;16.52;;;;;;;3.95;90.39;102407.72;5043023;28;20056;-73
2022/03/28 04:28:09;;;;;;;43.13;16.67;;;;;;;3.96;90.57;102413.03;5042455;28;20095;-69
2022/03/28 04:30:35;;;;;;;50.13;16.55;;;;;;;3.95;90.64;102410.44;5044273;28;20396;-72
2022/03/28 04:33:02;;;;;;;41.72;17.13;;;;;;;3.89;90.62;102411.88;5043975;28;20025;-72
2022/03/28 04:35:28;;;;;;;44.65;15.63;;;;;;;3.86;90.30;102409.47;5041857;28;20112;-72
2022/03/28 04:37:53;;;;;;;44.10;17.15;;;;;;;3.85;90.89;102413.19;5040442;28;20120;-72
2022/03/28 04:40:18;;;;;;;39.72;17.52;;;;;;;3.86;90.72;102410.34;5042101;28;20496;-73
2022/03/28 04:42:45;;;;;;;51.33;17.48;;;;;;;3.88;91.31;102413.75;5041279;28;20032;-72
2022/03/28 04:45:10;;;;;;;43.42;16.75;;;;;;;3.83;90.77;102410.63;5039003;28;20021;-71
2022/03/28 04:47:36;;;;;;;41.90;16.55;;;;;;;3.77;90.41;102415.78;5043778;28;20520;-73
2022/03/28 04:50:02;;;;;;;33.33;15.27;;;;;;;3.71;90.49;102416.41;5042802;28;20045;-72
2022/03/28 04:52:27;;;;;;;39.05;14.50;;;;;;;3.68;90.18;102427.53;5042176;28;20086;-73
2022/03/28 04:54:53;;;;;;;44.88;16.52;;;;;;;3.71;90.72;102432.69;5042498;28;20053;-72
2022/03/28 04:57:18;;;;;;;48.40;17.05;;;;;;;3.79;91.36;102432.81;5040818;28;20364;-73
2022/03/28 04:59:43;;;;;;;42.42;16.00;;;;;;;3.79;91.02;102435.53;5042873;28;20035;-73
2022/03/28 05:02:08;;;;;;;44.15;15.13;;;;;;;3.79;91.09;102430.94;5042830;28;20025;-72
2022/03/28 05:04:35;;;;;;;50.70;16.85;;;;;;;3.80;91.03;102421.81;5040266;28;20017;-72
2022/03/28 05:07:00;;;;;;;41.17;14.88;;;;;;;3.72;90.53;102418.09;5041850;28;20044;-72
2022/03/28 05:09:26;;;;;;;40.85;14.32;;;;;;;3.65;90.15;102417.84;5042007;28;20326;-72
2022/03/28 05:11:51;;;;;;;38.42;14.77;;;;;;;3.58;89.89;102411.25;5043208;28;20628;-73
2022/03/28 05:14:18;;;;;;;38.42;14.75;;;;;;;3.54;90.22;102416.13;5041945;28;20039;-73
2022/03/28 05:16:43;;;;;;;45.67;19.77;;;;;;;3.56;90.83;102418.72;5042216;28;20040;-73
2022/03/28 05:19:08;;;;;;;39.67;15.43;;;;;;;3.49;90.45;102417.56;5040346;28;20029;-74
2022/03/28 05:21:34;;;;;;;37.13;15.32;;;;;;;3.43;90.51;102407.28;5037134;28;20111;-73
2022/03/28 05:23:59;;;;;;;37.28;14.63;;;;;;;3.39;90.32;102413.00;5041329;28;20036;-73
2022/03/28 05:26:26;;;;;;;40.60;14.65;;;;;;;3.38;90.65;102405.00;5042145;28;20075;-74
2022/03/28 05:28:51;;;;;;;39.25;15.27;;;;;;;3.33;90.59;102410.03;5040644;28;20036;-73
2022/03/28 05:31:17;;;;;;;43.28;16.13;;;;;;;3.33;90.55;102410.88;5041298;28;20445;-73
2022/03/28 05:33:42;;;;;;;43.92;16.15;;;;;;;3.38;90.92;102410.44;5038398;28;20040;-74
2022/03/28 05:36:07;;;;;;;44.88;15.90;;;;;;;3.44;91.08;102409.84;5042259;28;20029;-74
2022/03/28 05:38:33;;;;;;;48.78;15.30;;;;;;;3.51;91.27;102410.16;5042280;28;20045;-74
2022/03/28 05:40:58;;;;;;;50.20;16.60;;;;;;;3.55;90.81;102408.84;5042729;28;20041;-74
2022/03/28 05:43:24;;;;;;;41.83;14.88;;;;;;;3.57;90.80;102410.41;5041318;28;20025;-74
2022/03/28 05:45:52;;;;;;;37.15;14.02;;;;;;;3.58;90.63;102412.13;5041737;28;20041;-74
2022/03/28 05:48:18;;;;;;;45.63;14.65;;;;;;;3.61;90.75;102411.84;5041324;28;20037;-73
2022/03/28 05:50:44;;;;;;;55.53;15.63;;;;;;;3.65;90.92;102417.84;5042721;28;20028;-73
2022/03/28 05:53:13;;;;;;;53.08;16.67;;;;;;;3.72;91.40;102412.66;5040008;28;20025;-65
2022/03/28 05:55:38;;;;;;;35.67;13.93;;;;;;;3.76;91.13;102412.22;5041775;28;20132;-74
2022/03/28 05:58:03;;;;;;;36.50;14.27;;;;;;;3.73;90.21;102411.66;5042456;28;20108;-74
2022/03/28 06:00:28;;;;;;;38.03;14.13;;;;;;;3.70;89.75;102409.22;5041371;28;20086;-74
2022/03/28 06:02:55;;;;;;;40.08;13.70;;;;;;;3.67;90.22;102407.66;5040776;28;20031;-73
2022/03/28 06:05:20;;;;;;;35.88;13.10;;;;;;;3.70;90.38;102399.25;5041733;28;20391;-73
2022/03/28 06:07:45;;;;;;;32.47;13.48;;;;;;;3.71;90.32;102395.50;5038441;28;20029;-73
2022/03/28 06:10:11;;;;;;;29.85;13.65;;;;;;;3.75;89.41;102393.34;5040933;28;20029;-73
2022/03/28 06:12:36;;;;;;;35.92;13.32;;;;;;;3.67;90.09;102388.66;5041844;28;20506;-73
2022/03/28 06:15:03;;;;;;;39.30;13.98;;;;;;;3.68;91.05;102401.22;5041525;28;20195;-73
2022/03/28 06:17:28;;;;;;;41.38;14.05;;;;;;;3.81;91.09;102390.03;5041358;28;20583;-73
2022/03/28 06:19:53;;;;;;;29.25;14.00;;;;;;;3.94;90.47;102386.97;5039807;28;20391;-74
2022/03/28 06:22:19;;;;;;;37.08;14.05;;;;;;;4.03;90.23;102388.81;5040614;28;20064;-74
2022/03/28 06:24:45;;;;;;;40.13;17.05;;;;;;;4.14;90.58;102392.16;5042590;28;20025;-74
2022/03/28 06:27:11;;;;;;;44.03;17.05;;;;;;;4.28;90.48;102398.13;5041053;28;20500;-75
2022/03/28 06:29:36;;;;;;;43.60;17.38;;;;;;;4.43;90.09;102397.47;5040378;28;20108;-74
2022/03/28 06:32:02;;;;;;;45.03;17.65;;;;;;;4.80;89.30;102388.31;5041171;28;20293;-73
2022/03/28 06:34:28;;;;;;;44.22;16.05;;;;;;;5.02;88.41;102381.56;5041777;28;20047;-75
2022/03/28 06:36:53;;;;;;;47.05;17.50;;;;;;;5.28;88.84;102376.16;5042291;28;20033;-75
2022/03/28 06:39:18;;;;;;;59.22;18.30;;;;;;;5.40;88.67;102374.88;5044147;28;20524;-74
2022/03/28 06:41:44;;;;;;;55.33;19.90;;;;;;;5.57;88.77;102377.72;5035656;28;20022;-74
2022/03/28 06:44:11;;;;;;;61.70;19.35;;;;;;;5.63;89.07;102375.22;5039606;28;20274;-67
2022/03/28 06:46:38;;;;;;;57.60;19.27;;;;;;;5.79;88.19;102385.38;5046421;28;20037;-74
2022/03/28 06:49:03;;;;;;;64.78;20.67;;;;;;;5.90;87.93;102384.22;5044715;28;20049;-75
2022/03/28 06:51:28;;;;;;;75.13;21.38;;;;;;;6.08;87.85;102387.75;5043217;28;20033;-74
2022/03/28 06:53:54;;;;;;;55.33;21.23;;;;;;;6.21;87.17;102388.16;5042043;28;20487;-75
2022/03/28 06:56:20;;;;;;;57.05;18.75;;;;;;;6.40;86.48;102383.47;5043478;28;20074;-75
2022/03/28 06:58:45;;;;;;;63.28;20.63;;;;;;;6.39;87.11;102387.22;5040737;28;20052;-72
2022/03/28 07:01:11;;;;;;;66.15;21.35;;;;;;;6.51;86.87;102383.16;5044906;28;20486;-73
2022/03/28 07:03:37;;;;;;;57.95;18.92;;;;;;;6.66;86.82;102381.47;5044833;28;20029;-73
2022/03/28 07:06:02;;;;;;;58.30;18.50;;;;;;;6.79;85.99;102377.38;5044802;28;20402;-73
2022/03/28 07:08:29;;;;;;;61.63;19.90;;;;;;;7.07;85.75;102381.53;5043457;28;20029;-74
2022/03/28 07:10:54;;;;;;;53.33;17.38;;;;;;;7.42;83.33;102368.53;5044801;28;20379;-73
2022/03/28 07:13:20;;;;;;;57.10;18.75;;;;;;;7.70;83.13;102363.50;5044589;28;20036;-73
2022/03/28 07:15:45;;;;;;;64.78;18.33;;;;;;;7.82;82.55;102364.03;5043721;28;20533;-72
2022/03/28 07:18:10;;;;;;;52.83;17.45;;;;;;;8.23;80.66;102362.81;5043920;28;20037;-73
2022/03/28 07:20:36;;;;;;;51.38;15.93;;;;;;;8.45;79.73;102352.13;5044250;28;20128;-74
2022/03/28 07:23:03;;;;;;;43.88;15.25;;;;;;;8.55;79.05;102350.03;5044246;28;20025;-74
2022/03/28 07:25:28;;;;;;;43.22;13.93;;;;;;;8.75;78.45;102348.53;5037787;28;20319;-75
2022/03/28 07:27:54;;;;;;;36.92;16.45;;;;;;;9.02;78.16;102351.72;5036325;28;20079;-76
2022/03/28 07:30:21;;;;;;;33.08;13.18;;;;;;;9.53;75.85;102355.56;5042951;28;20044;-76
2022/03/28 07:32:47;;;;;;;34.28;13.70;;;;;;;10.21;74.19;102356.31;5025985;28;20686;-76
2022/03/28 07:35:14;;;;;;;34.47;12.07;;;;;;;11.17;70.61;102338.59;5044597;28;20029;-75
2022/03/28 07:37:40;;;;;;;31.98;12.65;;;;;;;12.14;66.60;102345.19;5041617;28;20128;-77
2022/03/28 07:40:08;;;;;;;31.17;12.15;;;;;;;12.26;64.89;102338.03;5044186;28;20438;-76
2022/03/28 07:42:34;;;;;;;27.63;11.75;;;;;;;12.26;64.57;102338.03;5040848;28;20467;-76
2022/03/28 07:45:00;;;;;;;32.95;13.45;;;;;;;12.45;63.52;102329.00;5040308;28;20464;-76
2022/03/28 07:47:26;;;;;;;29.33;12.52;;;;;;;12.32;63.34;102326.22;5043528;28;20029;-75
2022/03/28 07:49:52;;;;;;;31.33;13.48;;;;;;;12.27;63.78;102334.25;5042441;28;20033;-75
2022/03/28 07:52:18;;;;;;;26.58;12.88;;;;;;;12.31;63.53;102324.50;5041319;28;20098;-75
2022/03/28 07:54:44;;;;;;;34.50;13.38;;;;;;;12.18;63.98;102332.72;5041579;28;20041;-73
2022/03/28 07:57:09;;;;;;;38.80;15.27;;;;;;;12.69;63.16;102335.03;5041907;28;20036;-75
2022/03/28 07:59:35;;;;;;;38.47;15.60;;;;;;;12.80;61.87;102320.63;5043715;28;20520;-76
2022/03/28 08:02:01;;;;;;;34.72;15.75;;;;;;;12.79;61.91;102323.59;5042318;28;20158;-76
2022/03/28 08:04:26;;;;;;;32.63;15.32;;;;;;;12.64;62.58;102321.00;5038325;28;20021;-77
2022/03/28 08:06:52;;;;;;;33.33;14.20;;;;;;;12.63;63.01;102314.66;5039655;28;20412;-76
2022/03/28 08:09:17;;;;;;;31.02;13.65;;;;;;;12.53;62.47;102300.44;5041030;28;20040;-77
2022/03/28 08:11:43;;;;;;;32.70;15.70;;;;;;;12.24;65.07;102304.34;5033647;28;20086;-77
2022/03/28 08:14:08;;;;;;;29.45;14.65;;;;;;;12.04;65.95;102304.28;5027415;28;20037;-64
2022/03/28 08:16:34;;;;;;;34.00;14.25;;;;;;;11.81;65.38;102309.19;5041250;28;20032;-75
2022/03/28 08:18:59;;;;;;;39.55;15.77;;;;;;;11.78;66.59;102313.22;5033816;28;20029;-75
2022/03/28 08:21:25;;;;;;;37.83;15.95;;;;;;;12.02;66.77;102311.06;5042354;28;20017;-76
2022/03/28 08:23:51;;;;;;;41.25;16.50;;;;;;;12.22;65.63;102309.22;5042692;28;20021;-76
2022/03/28 08:26:16;;;;;;;35.03;16.05;;;;;;;12.26;66.26;102301.38;5040466;28;20040;-76
2022/03/28 08:28:43;;;;;;;36.78;15.95;;;;;;;12.42;64.67;102304.63;5033272;28;20107;-76
2022/03/28 08:31:09;;;;;;;30.42;14.98;;;;;;;12.48;64.32;102296.59;5031673;28;20029;-71
2022/03/28 08:33:34;;;;;;;32.08;15.38;;;;;;;12.53;63.61;102299.59;5035412;28;20799;-76
2022/03/28 08:35:59;;;;;;;39.97;16.13;;;;;;;12.94;63.22;102293.91;5036750;28;20025;-75
2022/03/28 08:38:24;;;;;;;35.67;16.60;;;;;;;13.15;62.44;102287.34;5041006;28;20079;-75
2022/03/28 08:40:50;;;;;;;38.10;15.95;;;;;;;13.42;61.37;102280.75;5043621;28;20395;-76
2022/03/28 08:43:22;;;;;;;34.50;16.30;;;;;;;13.78;61.20;102284.91;5039974;28;20037;-75
2022/03/28 08:45:52;;;;;;;35.30;16.30;;;;;;;14.02;59.56;102286.97;5043338;28;20183;-75
2022/03/28 08:48:18;;;;;;;31.63;15.65;;;;;;;14.33;58.53;102288.09;5041519;28;20048;-75
2022/03/28 08:50:45;;;;;;;41.22;17.60;;;;;;;14.60;57.39;102280.56;5042423;28;20394;-75
2022/03/28 08:53:12;;;;;;;35.88;16.92;;;;;;;14.58;56.20;102288.19;5021539;28;20164;-74
2022/03/28 08:55:39;;;;;;;33.72;16.55;;;;;;;14.54;57.14;102285.03;5028964;28;20044;-74
2022/03/28 08:58:05;;;;;;;35.75;17.20;;;;;;;14.75;57.01;102286.63;5041922;28;20037;-75
2022/03/28 09:00:30;;;;;;;38.58;17.88;;;;;;;15.73;54.34;102279.59;5043070;28;20744;-74
2022/03/28 09:02:57;;;;;;;39.65;17.08;;;;;;;17.04;50.68;102278.84;5030134;28;20031;-74
2022/03/28 09:05:30;;;;;;;37.90;16.90;;;;;;;18.54;48.48;102274.41;5039609;28;20108;-74
2022/03/28 09:07:58;;;;;;;38.72;17.50;;;;;;;19.67;44.99;102277.19;5042402;28;20029;-75
2022/03/28 09:10:23;;;;;;;38.22;17.15;;;;;;;20.56;42.40;102278.88;5042289;28;20572;-72
2022/03/28 09:13:04;;;;;;;35.17;16.38;;;;;;;21.31;42.72;102277.06;5042568;28;20113;-73
2022/03/28 09:15:41;;;;;;;35.58;17.08;;;;;;;22.19;40.96;102278.13;5029634;28;21029;-75
2022/03/28 09:18:08;;;;;;;31.38;17.52;;;;;;;23.06;36.62;102275.53;5025769;28;20077;-72
2022/03/28 09:20:36;;;;;;;33.95;18.17;;;;;;;23.58;35.21;102265.13;5038899;28;20013;-71
2022/03/28 09:23:33;;;;;;;39.28;18.83;;;;;;;24.32;37.55;102267.91;5036603;28;20052;-69
2022/03/28 09:25:59;;;;;;;39.22;19.48;;;;;;;24.52;35.02;102268.97;5042225;28;20080;-70
2022/03/28 09:28:53;;;;;;;39.50;20.30;;;;;;;24.91;35.60;102265.31;5040626;28;20311;-70
2022/03/28 09:31:26;;;;;;;36.53;20.42;;;;;;;25.63;34.00;102261.56;5030849;28;20035;-69
2022/03/28 09:34:13;;;;;;;39.15;20.23;;;;;;;25.98;34.75;102259.50;5039898;28;20039;-68
2022/03/28 09:36:39;;;;;;;;;;;;;;;26.72;36.14;102259.91;5035886;28;20072;-68
2022/03/28 09:39:06;;;;;;;44.37;21.80;;;;;;;26.34;30.96;102247.75;5042249;28;19974;-69
2022/03/28 09:41:31;;;;;;;40.90;21.38;;;;;;;26.42;29.74;102260.34;5035505;28;20033;-70
2022/03/28 09:43:57;;;;;;;39.40;20.20;;;;;;;26.64;29.97;102254.94;5026499;28;20041;-70
2022/03/28 09:46:31;;;;;;;41.58;22.05;;;;;;;26.45;30.96;102252.13;5041027;28;20226;-71
2022/03/28 09:48:59;;;;;;;42.78;22.10;;;;;;;26.22;29.58;102241.75;5039109;28;20033;-70
2022/03/28 09:51:30;;;;;;;40.47;21.88;;;;;;;26.10;31.65;102250.59;5040920;28;20036;-70
2022/03/28 09:53:57;;;;;;;45.58;22.55;;;;;;;26.20;29.35;102249.63;5041820;28;20052;-71
2022/03/28 09:56:23;;;;;;;41.28;21.33;;;;;;;26.90;28.42;102241.28;5041596;28;20029;-71
2022/03/28 09:59:03;;;;;;;40.00;22.05;;;;;;;27.19;27.51;102243.91;5038171;28;20451;-72
2022/03/28 10:01:39;;;;;;;43.00;21.80;;;;;;;27.13;28.98;102231.88;5025566;28;20090;-72
2022/03/28 10:04:08;;;;;;;39.05;21.10;;;;;;;27.70;28.31;102236.44;5034662;28;20075;-72
2022/03/28 10:06:34;;;;;;;40.25;21.77;;;;;;;27.27;28.38;102234.75;5025105;28;20838;-72
2022/03/28 10:09:00;;;;;;;39.58;20.55;;;;;;;27.51;27.42;102222.41;5026785;28;20033;-71
2022/03/28 10:11:26;;;;;;;39.00;19.85;;;;;;;27.71;28.43;102226.84;5029953;28;20033;-73
2022/03/28 10:13:52;;;;;;;41.28;20.95;;;;;;;27.64;27.20;102224.44;5040697;28;20033;-73
2022/03/28 10:16:18;;;;;;;43.47;21.65;;;;;;;27.49;27.80;102219.91;5044003;28;20032;-72
2022/03/28 10:18:45;;;;;;;39.08;21.55;;;;;;;27.61;27.67;102216.56;5045865;28;20057;-73
2022/03/28 10:21:19;;;;;;;41.03;21.58;;;;;;;27.72;27.20;102214.41;5045870;28;20112;-71
2022/03/28 10:23:50;;;;;;;40.38;21.95;;;;;;;28.12;27.58;102204.22;5046716;28;20446;-72
2022/03/28 10:26:18;;;;;;;41.97;22.70;;;;;;;28.46;28.65;102209.41;5044122;28;20036;-72
2022/03/28 10:29:05;;;;;;;39.75;21.83;;;;;;;28.67;27.73;102213.38;5043887;28;20033;-73
2022/03/28 10:31:32;;;;;;;41.00;22.70;;;;;;;28.06;25.84;102197.03;5039167;28;20518;-74
2022/03/28 10:33:58;;;;;;;42.67;22.27;;;;;;;27.11;26.20;102202.28;5045495;28;20287;-74
2022/03/28 10:36:32;;;;;;;36.35;21.30;;;;;;;26.87;28.65;102196.78;5044698;28;20151;-74
2022/03/28 10:39:32;;;;;;;42.72;22.65;;;;;;;26.90;28.78;102187.69;5046596;28;20038;-74
2022/03/28 10:42:26;;;;;;;36.28;20.40;;;;;;;27.19;29.40;102176.22;5043242;28;20044;-74
2022/03/28 10:45:04;;;;;;;42.45;21.95;;;;;;;27.61;28.77;102169.44;5041090;28;20036;-73
2022/03/28 10:47:54;;;;;;;42.83;20.30;;;;;;;27.43;26.54;102170.38;5037462;28;20416;-73
2022/03/28 10:50:26;;;;;;;42.28;19.90;;;;;;;26.97;27.82;102173.19;5045604;28;20094;-72
2022/03/28 10:53:10;;;;;;;38.45;21.15;;;;;;;27.47;28.15;102164.94;5045978;28;20017;-73
2022/03/28 10:55:35;;;;;;;36.72;20.23;;;;;;;28.26;24.98;102165.47;5045973;28;20047;-74
2022/03/28 10:58:12;;;;;;;40.23;23.17;;;;;;;27.40;26.59;102166.19;5045974;28;20024;-72
2022/03/28 11:00:37;;;;;;;35.97;21.30;;;;;;;27.56;26.72;102155.41;5046077;28;20276;-73
2022/03/28 11:03:03;;;;;;;37.38;21.33;;;;;;;27.78;25.74;102157.53;5044292;28;20055;-72
2022/03/28 11:05:31;;;;;;;37.60;21.95;;;;;;;28.07;25.75;102154.31;5045888;28;20043;-73
2022/03/28 11:08:03;;;;;;;35.65;21.48;;;;;;;28.47;26.66;102151.72;5039509;28;20100;-72
2022/03/28 11:10:28;;;;;;;37.58;21.20;;;;;;;28.42;25.74;102149.00;5025277;28;20044;-72
2022/03/28 11:13:14;;;;;;;34.58;21.45;;;;;;;29.02;26.08;102147.78;5025209;28;20213;-71